Time;durP1;ratioP1;P1;durP2;ratioP2;P2;SDS_P1;SDS_P2;PMS_P1;PMS_P2;Temp;Humidity;BMP_temperature;BMP_pressure;BME280_temperature;BME280_humidity;BME280_pressure;Samples;Min_cycle;Max_cycle;Signal;HPM_P1;HPM_P2
2022/02/13 00:01:36;;;;;;;10.45;4.18;;;3.20;64.90;;;;;;2291041;55;21080;-72
2022/02/13 00:04:03;;;;;;;8.20;3.65;;;3.10;64.70;;;;;;2523827;55;21079;-73
2022/02/13 00:06:29;;;;;;;8.35;3.67;;;3.10;64.80;;;;;;2288831;56;21355;-73
2022/02/13 00:08:56;;;;;;;10.10;4.32;;;3.10;64.90;;;;;;2289659;56;21414;-71
2022/02/13 00:11:22;;;;;;;8.40;3.03;;;3.10;64.90;;;;;;2289144;56;20944;-70
2022/02/13 00:13:48;;;;;;;7.65;3.33;;;3.10;64.80;;;;;;2296238;55;20937;-73
2022/02/13 00:16:15;;;;;;;6.62;3.17;;;3.10;64.80;;;;;;2446840;55;21639;-72
2022/02/13 00:18:42;;;;;;;6.15;3.10;;;3.00;64.70;;;;;;2523366;54;21421;-73
2022/02/13 00:21:22;;;;;;;5.75;2.80;;;3.00;64.90;;;;;;2289611;56;21422;-72
2022/02/13 00:23:48;;;;;;;5.95;2.60;;;3.00;64.90;;;;;;2292891;55;20995;-70
2022/02/13 00:26:14;;;;;;;6.18;2.50;;;3.00;65.00;;;;;;2275959;55;20945;-73
2022/02/13 00:28:41;;;;;;;7.82;3.30;;;3.00;65.00;;;;;;2291543;56;20964;-71
2022/02/13 00:31:07;;;;;;;5.90;2.80;;;3.00;65.10;;;;;;2289016;55;21337;-73
2022/02/13 00:33:34;;;;;;;5.97;2.72;;;2.90;65.10;;;;;;2409272;55;20941;-71
2022/02/13 00:36:02;;;;;;;4.72;2.58;;;2.90;65.20;;;;;;2289573;56;20977;-71
2022/02/13 00:38:31;;;;;;;5.93;2.60;;;2.90;65.20;;;;;;2307900;55;21826;-72
2022/02/13 00:41:00;;;;;;;6.32;2.40;;;2.90;65.20;;;;;;2289970;56;20961;-73
2022/02/13 00:43:29;;;;;;;6.80;3.25;;;2.90;65.10;;;;;;2290301;55;21033;-74
2022/02/13 00:45:55;;;;;;;4.62;2.05;;;2.90;65.00;;;;;;2523063;55;20929;-73
2022/02/13 00:48:21;;;;;;;6.43;2.90;;;2.90;65.10;;;;;;2289570;56;20993;-72
2022/02/13 00:50:48;;;;;;;7.03;3.42;;;2.90;65.00;;;;;;2330534;55;20963;-72
2022/02/13 00:53:14;;;;;;;9.02;3.70;;;2.80;64.90;;;;;;2463409;54;21037;-74
2022/02/13 00:55:41;;;;;;;6.35;3.35;;;2.80;64.90;;;;;;2275801;54;20964;-74
2022/02/13 00:58:07;;;;;;;6.75;3.12;;;2.80;64.90;;;;;;2278819;55;21005;-73
2022/02/13 01:00:33;;;;;;;8.60;3.80;;;2.80;64.80;;;;;;2523873;55;20940;-73
2022/02/13 01:03:00;;;;;;;7.05;3.58;;;2.70;64.70;;;;;;2289748;56;21000;-75
2022/02/13 01:05:27;;;;;;;8.20;4.07;;;2.70;64.80;;;;;;2267250;56;21778;-74
2022/02/13 01:07:53;;;;;;;8.15;3.67;;;2.70;64.80;;;;;;2289392;56;21473;-74
2022/02/13 01:10:19;;;;;;;7.57;3.70;;;2.70;64.90;;;;;;2289547;56;21386;-72
2022/02/13 01:12:46;;;;;;;10.05;4.87;;;2.70;64.90;;;;;;2330038;55;21000;-72
2022/02/13 01:15:12;;;;;;;10.48;4.20;;;2.60;64.70;;;;;;2354942;54;20936;-74
2022/02/13 01:17:38;;;;;;;9.85;4.47;;;2.60;64.80;;;;;;2289415;56;21922;-73
2022/02/13 01:20:06;;;;;;;11.07;4.53;;;2.60;64.80;;;;;;2335553;55;20986;-73
2022/02/13 01:22:32;;;;;;;10.20;4.30;;;2.60;64.80;;;;;;2519763;55;21034;-73
2022/02/13 01:24:59;;;;;;;9.88;4.97;;;2.60;64.90;;;;;;2289350;55;20996;-74
2022/02/13 01:27:25;;;;;;;9.25;4.10;;;2.60;64.90;;;;;;2295918;55;21048;-74
2022/02/13 01:29:52;;;;;;;10.02;4.90;;;2.50;64.80;;;;;;2302347;55;21453;-72
2022/02/13 01:32:21;;;;;;;9.82;4.40;;;2.50;64.80;;;;;;2300529;55;21560;-74
2022/02/13 01:34:47;;;;;;;8.50;4.10;;;2.50;64.80;;;;;;2288729;55;20936;-73
2022/02/13 01:37:14;;;;;;;8.70;4.30;;;2.50;64.80;;;;;;2335754;55;21052;-72
2022/02/13 01:39:41;;;;;;;10.13;5.05;;;2.50;64.80;;;;;;2293195;55;20946;-75
2022/02/13 01:42:09;;;;;;;8.95;4.55;;;2.40;64.80;;;;;;2499596;54;21005;-73
2022/02/13 01:44:35;;;;;;;10.52;4.40;;;2.40;64.80;;;;;;2291765;56;20961;-75
2022/02/13 01:47:02;;;;;;;7.80;4.00;;;2.40;64.90;;;;;;2289531;56;21803;-74
2022/02/13 01:49:28;;;;;;;8.10;4.03;;;2.30;64.80;;;;;;2289229;56;21604;-75
2022/02/13 01:51:56;;;;;;;8.02;3.75;;;2.30;64.80;;;;;;2524224;55;20952;-74
2022/02/13 01:54:22;;;;;;;9.85;4.03;;;2.30;64.90;;;;;;2289176;56;21540;-74
2022/02/13 01:56:49;;;;;;;8.10;4.22;;;2.30;64.90;;;;;;2291488;55;20966;-76
2022/02/13 01:59:16;;;;;;;8.60;3.78;;;2.30;64.90;;;;;;2274384;55;20937;-72
2022/02/13 02:01:42;;;;;;;8.18;4.22;;;2.20;64.90;;;;;;2523731;55;20944;-75
2022/02/13 02:04:08;;;;;;;8.38;3.97;;;2.20;64.90;;;;;;2288888;56;20953;-75
2022/02/13 02:06:35;;;;;;;9.77;4.55;;;2.20;64.90;;;;;;2289265;55;20956;-75
2022/02/13 02:09:03;;;;;;;7.93;3.62;;;2.20;65.00;;;;;;2289263;56;21007;-73
2022/02/13 02:11:29;;;;;;;7.35;4.00;;;2.20;65.10;;;;;;2523121;54;21031;-75
2022/02/13 02:13:58;;;;;;;10.20;4.53;;;2.20;65.10;;;;;;2368207;55;21793;-74
2022/02/13 02:16:24;;;;;;;7.93;4.12;;;2.20;65.20;;;;;;2294258;55;20930;-73
2022/02/13 02:18:51;;;;;;;6.20;3.53;;;2.20;65.20;;;;;;2326715;54;20952;-74
2022/02/13 02:21:17;;;;;;;11.80;4.78;;;2.20;65.20;;;;;;2290908;55;21024;-73
2022/02/13 02:23:45;;;;;;;13.50;6.32;;;2.20;65.20;;;;;;2523900;55;20941;-74
2022/02/13 02:26:17;;;;;;;14.25;6.43;;;2.20;65.20;;;;;;2289369;56;20945;-74
2022/02/13 02:28:43;;;;;;;13.10;5.85;;;2.10;65.20;;;;;;2327494;55;21983;-75
2022/02/13 02:31:10;;;;;;;14.55;5.93;;;2.10;65.20;;;;;;2289101;56;21012;-74
2022/02/13 02:33:38;;;;;;;17.30;7.20;;;2.10;65.20;;;;;;2289340;56;20993;-76
2022/02/13 02:36:12;;;;;;;14.82;6.55;;;2.10;65.20;;;;;;2292612;55;21437;-73
2022/02/13 02:38:38;;;;;;;16.83;7.32;;;2.10;65.40;;;;;;2362985;54;20960;-74
2022/02/13 02:41:05;;;;;;;14.38;6.72;;;2.10;65.40;;;;;;2286205;55;20948;-74
2022/02/13 02:43:31;;;;;;;12.68;6.18;;;2.10;65.40;;;;;;2267819;54;21016;-74
2022/02/13 02:45:57;;;;;;;12.00;5.18;;;2.10;65.40;;;;;;2289114;55;21313;-74
2022/02/13 02:48:24;;;;;;;11.80;5.07;;;2.10;65.40;;;;;;2413485;55;21016;-73
2022/02/13 02:50:52;;;;;;;10.65;4.70;;;2.10;65.50;;;;;;2289704;56;20944;-75
2022/02/13 02:53:19;;;;;;;11.90;5.10;;;2.10;65.60;;;;;;2289956;56;20933;-75
2022/02/13 02:55:45;;;;;;;10.73;5.12;;;2.10;65.60;;;;;;2291189;55;21619;-75
2022/02/13 02:58:12;;;;;;;10.10;4.45;;;2.10;65.60;;;;;;2288008;55;21029;-74
2022/02/13 03:00:38;;;;;;;9.15;4.22;;;2.20;65.70;;;;;;2288663;55;20985;-75
2022/02/13 03:03:05;;;;;;;12.77;4.82;;;2.10;65.60;;;;;;2289183;56;21445;-76
2022/02/13 03:05:31;;;;;;;25.67;7.95;;;2.10;65.60;;;;;;2289111;56;20960;-75
2022/02/13 03:07:57;;;;;;;16.92;6.12;;;2.10;65.60;;;;;;2288692;56;21515;-76
2022/02/13 03:10:24;;;;;;;12.60;4.70;;;2.10;65.70;;;;;;2289247;56;21576;-73
2022/02/13 03:12:50;;;;;;;11.82;4.87;;;2.10;65.80;;;;;;2337266;55;20970;-75
2022/02/13 03:15:17;;;;;;;13.70;5.43;;;2.10;65.80;;;;;;2290002;56;20980;-74
2022/02/13 03:17:45;;;;;;;10.70;4.60;;;2.10;65.90;;;;;;2267283;55;20945;-75
2022/02/13 03:20:12;;;;;;;10.02;4.47;;;2.10;65.90;;;;;;2337888;55;21001;-76
2022/02/13 03:22:38;;;;;;;9.82;4.32;;;2.10;65.90;;;;;;2289167;56;20969;-73
2022/02/13 03:25:05;;;;;;;9.93;4.00;;;2.10;65.90;;;;;;2288526;56;21564;-75
2022/02/13 03:27:31;;;;;;;9.27;4.20;;;2.10;65.90;;;;;;2288689;56;20992;-73
2022/02/13 03:29:58;;;;;;;7.75;2.97;;;2.10;65.90;;;;;;2360244;55;20960;-75
2022/02/13 03:32:24;;;;;;;9.82;4.07;;;2.10;65.90;;;;;;2267668;56;1318805;-76
2022/02/13 03:34:53;;;;;;;7.75;3.55;;;2.10;65.90;;;;;;2289016;56;20972;-75
2022/02/13 03:37:22;;;;;;;7.68;3.20;;;2.10;65.90;;;;;;2305761;55;20972;-74
2022/02/13 03:39:49;;;;;;;10.43;3.47;;;2.20;65.90;;;;;;2523838;55;21799;-74
2022/02/13 03:42:15;;;;;;;7.70;3.67;;;2.10;65.80;;;;;;2266650;56;20989;-72
2022/02/13 03:44:42;;;;;;;10.05;3.70;;;2.20;65.90;;;;;;2298026;55;20912;-76
2022/02/13 03:47:08;;;;;;;9.63;3.87;;;2.10;65.80;;;;;;2287125;55;20950;-76
2022/02/13 03:49:34;;;;;;;6.37;3.30;;;2.10;65.90;;;;;;2288386;54;20960;-74
2022/02/13 03:52:03;;;;;;;5.75;3.15;;;2.10;65.90;;;;;;2337107;54;20997;-75
2022/02/13 03:54:30;;;;;;;6.97;2.90;;;2.10;65.90;;;;;;2287899;55;20912;-73
2022/02/13 03:56:56;;;;;;;6.85;3.05;;;2.10;65.80;;;;;;2294630;55;20929;-74
2022/02/13 03:59:22;;;;;;;9.75;3.53;;;2.10;65.80;;;;;;2422730;55;21438;-76
2022/02/13 04:01:49;;;;;;;6.55;2.90;;;2.10;65.80;;;;;;2523327;55;21815;-74
2022/02/13 04:04:15;;;;;;;6.47;3.12;;;2.10;65.70;;;;;;2488327;55;21049;-75
2022/02/13 04:06:42;;;;;;;6.22;3.22;;;2.10;65.70;;;;;;2351480;54;21889;-74
2022/02/13 04:09:08;;;;;;;8.05;3.53;;;2.10;65.70;;;;;;2356029;54;21016;-75
2022/02/13 04:11:34;;;;;;;6.22;2.85;;;2.10;65.80;;;;;;2289032;55;21061;-76
2022/02/13 04:14:01;;;;;;;8.88;3.67;;;2.10;65.80;;;;;;2289561;56;20925;-72
2022/02/13 04:16:30;;;;;;;7.15;3.08;;;2.10;65.80;;;;;;2472509;55;21009;-76
2022/02/13 04:18:56;;;;;;;7.43;3.33;;;2.10;65.80;;;;;;2427987;54;21541;-76
2022/02/13 04:21:22;;;;;;;7.90;3.55;;;2.10;65.80;;;;;;2269713;56;21044;-76
2022/02/13 04:23:48;;;;;;;7.62;3.42;;;2.10;65.80;;;;;;2267677;55;20964;-73
2022/02/13 04:26:14;;;;;;;7.18;3.65;;;2.10;65.80;;;;;;2326688;54;21089;-76
2022/02/13 04:28:41;;;;;;;9.50;4.03;;;2.10;65.70;;;;;;2288882;55;20968;-73
2022/02/13 04:31:07;;;;;;;10.27;4.07;;;2.10;65.70;;;;;;2290024;56;20940;-73
2022/02/13 04:33:33;;;;;;;10.60;3.87;;;2.00;65.60;;;;;;2374503;55;20993;-73
2022/02/13 04:36:00;;;;;;;9.43;4.10;;;2.00;65.50;;;;;;2289662;56;21036;-74
2022/02/13 04:38:26;;;;;;;8.13;4.00;;;2.00;65.50;;;;;;2296948;55;21519;-75
2022/02/13 04:40:53;;;;;;;10.45;4.35;;;2.00;65.50;;;;;;2523061;54;21016;-75
2022/02/13 04:43:19;;;;;;;6.50;3.50;;;2.00;65.60;;;;;;2289817;56;20953;-73
2022/02/13 04:45:46;;;;;;;6.68;3.53;;;2.00;65.60;;;;;;2289626;56;21064;-74
2022/02/13 04:48:12;;;;;;;6.93;3.25;;;2.00;65.60;;;;;;2290687;55;21012;-75
2022/02/13 04:50:39;;;;;;;7.25;3.50;;;2.00;65.60;;;;;;2289913;56;20952;-75
2022/02/13 04:53:05;;;;;;;8.93;3.60;;;1.90;65.60;;;;;;2290037;56;21013;-76
2022/02/13 04:55:31;;;;;;;6.55;3.35;;;1.90;65.60;;;;;;2289751;56;21076;-73
2022/02/13 04:57:58;;;;;;;7.55;3.50;;;1.90;65.80;;;;;;2289378;56;20960;-75
2022/02/13 05:00:24;;;;;;;7.32;3.47;;;1.90;65.90;;;;;;2486772;54;20969;-74
2022/02/13 05:02:50;;;;;;;23.60;8.07;;;1.90;66.00;;;;;;2290724;55;21466;-76
2022/02/13 05:05:17;;;;;;;14.25;7.93;;;2.00;66.10;;;;;;2299871;55;20977;-73
2022/02/13 05:07:43;;;;;;;11.75;6.72;;;2.00;66.20;;;;;;2291213;55;21070;-74
2022/02/13 05:10:09;;;;;;;11.38;6.15;;;2.00;66.30;;;;;;2286551;55;21012;-76
2022/02/13 05:12:35;;;;;;;9.38;4.40;;;2.00;66.30;;;;;;2293155;56;20968;-76
2022/02/13 05:15:02;;;;;;;9.90;4.30;;;2.00;66.30;;;;;;2428168;55;21428;-74
2022/02/13 05:17:36;;;;;;;9.88;4.82;;;2.00;66.30;;;;;;2335443;55;21021;-75
2022/02/13 05:20:06;;;;;;;7.50;3.83;;;2.00;66.20;;;;;;2291354;55;20949;-74
2022/02/13 05:22:34;;;;;;;9.10;3.12;;;2.00;66.20;;;;;;2289916;56;21645;-72
2022/02/13 05:25:02;;;;;;;6.65;3.03;;;2.00;66.20;;;;;;2524631;55;20952;-76
2022/02/13 05:27:28;;;;;;;5.37;2.92;;;2.00;66.30;;;;;;2523960;55;21044;-73
2022/02/13 05:29:57;;;;;;;7.85;3.17;;;2.00;66.20;;;;;;2391968;54;20976;-74
2022/02/13 05:32:24;;;;;;;5.45;2.85;;;2.00;66.20;;;;;;2295911;54;20932;-76
2022/02/13 05:34:51;;;;;;;7.87;3.25;;;2.00;66.20;;;;;;2289224;56;21072;-76
2022/02/13 05:37:17;;;;;;;6.62;2.80;;;2.00;66.20;;;;;;2353732;55;20945;-76
2022/02/13 05:39:44;;;;;;;6.18;3.17;;;2.00;66.20;;;;;;2361937;55;21004;-76
2022/02/13 05:42:11;;;;;;;8.00;3.90;;;2.00;66.20;;;;;;2289530;56;20989;-73
2022/02/13 05:44:38;;;;;;;9.02;3.97;;;2.10;66.40;;;;;;2368247;55;20949;-73
2022/02/13 05:47:05;;;;;;;6.45;3.20;;;2.00;66.30;;;;;;2289334;56;21008;-76
2022/02/13 05:49:32;;;;;;;8.18;3.80;;;2.10;66.50;;;;;;2288578;55;20954;-74
2022/02/13 05:51:58;;;;;;;7.30;3.85;;;2.10;66.50;;;;;;2295610;55;21494;-76
2022/02/13 05:54:30;;;;;;;6.85;3.47;;;2.10;66.40;;;;;;2271134;55;22047;-74
2022/02/13 05:56:57;;;;;;;8.82;3.35;;;2.10;66.40;;;;;;2286204;55;20920;-74
2022/02/13 05:59:23;;;;;;;7.65;3.30;;;2.10;66.30;;;;;;2523688;54;20985;-75
2022/02/13 06:01:53;;;;;;;10.02;4.05;;;2.10;66.30;;;;;;2315448;55;21021;-74
2022/02/13 06:04:37;;;;;;;8.68;3.78;;;2.10;67.00;;;;;;2289757;56;20960;-75
2022/02/13 06:07:03;;;;;;;7.07;3.55;;;2.10;66.10;;;;;;2267209;56;20941;-75
2022/02/13 06:09:32;;;;;;;7.28;3.83;;;2.10;66.20;;;;;;2289553;56;21032;-76
2022/02/13 06:12:00;;;;;;;8.88;3.80;;;2.10;66.20;;;;;;2290449;55;20929;-76
2022/02/13 06:14:26;;;;;;;9.10;4.30;;;2.10;66.20;;;;;;2289414;56;21029;-75
2022/02/13 06:16:55;;;;;;;10.85;5.18;;;2.00;66.10;;;;;;2289255;55;20958;-74
2022/02/13 06:19:21;;;;;;;8.05;4.60;;;2.10;66.20;;;;;;2268355;55;20995;-76
2022/02/13 06:21:50;;;;;;;11.68;5.28;;;2.10;66.20;;;;;;2285897;55;21032;-74
2022/02/13 06:24:17;;;;;;;13.18;5.78;;;2.00;66.10;;;;;;2289461;56;20933;-73
2022/02/13 06:26:43;;;;;;;10.45;5.15;;;2.00;66.20;;;;;;2288518;56;21438;-76
2022/02/13 06:29:10;;;;;;;10.30;5.32;;;2.00;66.20;;;;;;2324235;55;21807;-74
2022/02/13 06:31:37;;;;;;;8.68;4.70;;;2.00;66.20;;;;;;2289344;56;21000;-77
2022/02/13 06:34:04;;;;;;;9.85;4.78;;;2.00;66.90;;;;;;2383346;55;21120;-74
2022/02/13 06:36:31;;;;;;;8.68;5.03;;;2.00;66.20;;;;;;2289367;56;21402;-74
2022/02/13 06:38:58;;;;;;;9.85;4.97;;;2.00;66.20;;;;;;2294657;55;21028;-75
2022/02/13 06:41:28;;;;;;;9.07;4.65;;;2.00;66.20;;;;;;2395591;54;21025;-74
2022/02/13 06:43:54;;;;;;;7.12;4.10;;;2.00;66.20;;;;;;2493249;54;20952;-74
2022/02/13 06:46:20;;;;;;;13.00;4.85;;;2.00;66.30;;;;;;2290163;55;20996;-75
2022/02/13 06:48:47;;;;;;;8.40;4.07;;;2.00;66.20;;;;;;2287676;55;20972;-75
2022/02/13 06:51:15;;;;;;;9.73;3.83;;;2.00;66.30;;;;;;2419951;55;20960;-75
2022/02/13 06:53:43;;;;;;;8.45;3.92;;;2.00;66.30;;;;;;2374721;55;21036;-76
2022/02/13 06:56:12;;;;;;;8.38;3.83;;;2.00;66.40;;;;;;2321488;55;21388;-72
2022/02/13 06:58:38;;;;;;;9.57;4.50;;;2.00;66.40;;;;;;2492355;55;20957;-75
2022/02/13 07:01:07;;;;;;;8.15;4.57;;;2.00;66.40;;;;;;2523877;55;21009;-75
2022/02/13 07:03:34;;;;;;;9.20;4.40;;;2.00;66.40;;;;;;2288786;56;20932;-73
2022/02/13 07:06:00;;;;;;;6.80;3.72;;;2.00;66.40;;;;;;2315537;54;21033;-75
2022/02/13 07:08:27;;;;;;;9.70;4.00;;;2.00;66.50;;;;;;2302039;55;21044;-73
2022/02/13 07:10:56;;;;;;;8.80;4.45;;;2.00;66.60;;;;;;2410066;54;20952;-74
2022/02/13 07:13:22;;;;;;;8.63;4.50;;;2.00;66.70;;;;;;2523277;54;20969;-76
2022/02/13 07:15:49;;;;;;;8.02;4.30;;;2.10;66.90;;;;;;2289161;56;20980;-73
2022/02/13 07:18:15;;;;;;;11.65;5.10;;;2.10;67.00;;;;;;2314845;55;20952;-75
2022/02/13 07:20:41;;;;;;;11.35;5.22;;;2.10;67.00;;;;;;2287663;55;20936;-76
2022/02/13 07:23:08;;;;;;;10.32;5.12;;;2.10;67.10;;;;;;2341578;55;20943;-74
2022/02/13 07:25:35;;;;;;;10.45;5.75;;;2.10;67.20;;;;;;2291183;55;21062;-73
2022/02/13 07:28:58;;;;;;;9.45;4.85;;;2.20;67.40;;;;;;2382770;55;20983;-73
2022/02/13 07:31:35;;;;;;;9.43;5.28;;;2.20;67.40;;;;;;2290265;55;21062;-73
2022/02/13 07:34:02;;;;;;;10.88;5.47;;;2.20;67.30;;;;;;2286272;55;20977;-73
2022/02/13 07:36:29;;;;;;;9.27;5.30;;;2.20;67.30;;;;;;2307194;55;21542;-75
2022/02/13 07:38:56;;;;;;;9.63;6.20;;;2.20;67.30;;;;;;2269394;55;21417;-74
2022/02/13 07:41:25;;;;;;;10.93;6.32;;;2.30;67.40;;;;;;2388948;55;21056;-76
2022/02/13 07:43:52;;;;;;;11.25;6.30;;;2.30;67.30;;;;;;2365204;55;21493;-76
2022/02/13 07:46:18;;;;;;;16.23;8.63;;;2.30;67.30;;;;;;2289406;56;21463;-73
2022/02/13 07:48:44;;;;;;;13.02;7.43;;;2.40;67.50;;;;;;2467170;55;20928;-73
2022/02/13 07:51:11;;;;;;;13.75;7.75;;;2.40;67.50;;;;;;2334069;55;21438;-75
2022/02/13 07:53:39;;;;;;;10.55;6.87;;;2.40;67.50;;;;;;2289169;56;20944;-73
2022/02/13 07:56:05;;;;;;;16.58;8.60;;;2.50;67.70;;;;;;2288965;56;20976;-74
2022/02/13 07:58:32;;;;;;;16.50;9.93;;;2.50;67.80;;;;;;2495857;55;21071;-77
2022/02/13 08:01:05;;;;;;;19.12;9.82;;;2.50;67.90;;;;;;2289480;56;21507;-74
2022/02/13 08:03:31;;;;;;;18.02;8.85;;;2.60;68.10;;;;;;2290758;55;21006;-75
2022/02/13 08:05:57;;;;;;;16.08;9.00;;;2.60;68.20;;;;;;2279818;55;21338;-76
2022/02/13 08:08:24;;;;;;;18.98;10.02;;;2.70;68.40;;;;;;2294083;55;21409;-75
2022/02/13 08:10:52;;;;;;;19.80;10.48;;;2.70;68.40;;;;;;2288999;55;20978;-75
2022/02/13 08:13:19;;;;;;;22.08;11.52;;;2.80;68.50;;;;;;2288028;54;20932;-74
2022/02/13 08:15:45;;;;;;;16.55;9.27;;;2.80;68.60;;;;;;2292223;55;21032;-73
2022/02/13 08:18:13;;;;;;;23.75;12.45;;;2.90;68.80;;;;;;2509896;54;20986;-73
2022/02/13 08:20:39;;;;;;;17.42;10.13;;;3.00;68.90;;;;;;2464211;55;20996;-73
2022/02/13 08:23:07;;;;;;;19.90;10.82;;;3.00;69.00;;;;;;2289702;55;21979;-73
2022/02/13 08:25:33;;;;;;;22.70;12.52;;;3.10;69.20;;;;;;2291875;54;21003;-72
2022/02/13 08:27:59;;;;;;;21.02;11.32;;;3.20;69.40;;;;;;2281584;55;20984;-73
2022/02/13 08:30:25;;;;;;;21.98;11.80;;;3.30;69.50;;;;;;2287529;55;20982;-70
2022/02/13 08:32:52;;;;;;;21.35;11.90;;;3.30;69.50;;;;;;2290499;56;21040;-71
2022/02/13 08:35:19;;;;;;;23.67;11.82;;;3.40;69.60;;;;;;2307491;55;21004;-70
2022/02/13 08:37:45;;;;;;;20.98;11.43;;;3.50;69.70;;;;;;2362673;55;20956;-72
2022/02/13 08:40:13;;;;;;;23.30;12.23;;;3.60;69.80;;;;;;2423154;55;21000;-72
2022/02/13 08:42:40;;;;;;;20.10;11.12;;;3.70;69.90;;;;;;2289369;56;21025;-71
2022/02/13 08:45:07;;;;;;;14.07;8.85;;;3.80;70.00;;;;;;2288587;55;20972;-72
2022/02/13 08:47:33;;;;;;;16.65;9.35;;;3.90;70.10;;;;;;2292477;55;21901;-72
2022/02/13 08:50:00;;;;;;;13.88;8.30;;;4.00;70.20;;;;;;2288586;56;21433;-70
2022/02/13 08:52:26;;;;;;;16.33;8.65;;;4.10;70.30;;;;;;2288126;56;21034;-70
2022/02/13 08:54:52;;;;;;;11.98;7.12;;;4.20;70.50;;;;;;2289171;56;21567;-70
2022/02/13 08:57:19;;;;;;;13.85;7.62;;;4.30;70.50;;;;;;2298733;55;20995;-71
2022/02/13 08:59:47;;;;;;;12.80;7.20;;;4.40;70.60;;;;;;2279688;55;21001;-71
2022/02/13 09:02:13;;;;;;;12.32;7.10;;;4.50;70.70;;;;;;2429205;54;21428;-70
2022/02/13 09:04:39;;;;;;;12.60;6.95;;;4.60;70.70;;;;;;2288577;56;20988;-70
2022/02/13 09:07:06;;;;;;;11.27;7.15;;;4.70;70.70;;;;;;2439552;55;21008;-71
2022/02/13 09:09:32;;;;;;;13.85;8.13;;;4.80;70.80;;;;;;2288699;56;20980;-71
2022/02/13 09:11:58;;;;;;;12.43;7.35;;;4.90;70.80;;;;;;2289017;56;20984;-70
2022/02/13 09:14:28;;;;;;;13.00;7.65;;;5.00;70.90;;;;;;2288045;56;21004;-70
2022/02/13 09:16:55;;;;;;;13.00;8.00;;;5.10;70.80;;;;;;2523161;55;20961;-71
2022/02/13 09:19:21;;;;;;;13.43;8.10;;;5.20;71.30;;;;;;2328080;54;21471;-71
2022/02/13 09:21:54;;;;;;;10.30;6.43;;;5.40;72.90;;;;;;2283796;55;21395;-71
2022/02/13 09:24:20;;;;;;;10.73;6.60;;;5.70;75.40;;;;;;2289992;55;20978;-71
2022/02/13 09:26:47;;;;;;;11.40;6.65;;;6.20;77.90;;;;;;2289173;55;20933;-71
2022/02/13 09:29:13;;;;;;;12.68;7.28;;;6.80;80.60;;;;;;2339701;55;20919;-71
2022/02/13 09:31:41;;;;;;;11.82;7.60;;;7.40;81.60;;;;;;2300227;55;20997;-71
2022/02/13 09:34:12;;;;;;;12.35;7.35;;;8.00;81.40;;;;;;2286531;55;21450;-70
2022/02/13 09:36:40;;;;;;;13.02;7.87;;;8.60;80.80;;;;;;2289137;55;20977;-72
2022/02/13 09:39:06;;;;;;;12.43;8.10;;;9.10;79.70;;;;;;2288403;55;21020;-71
2022/02/13 09:41:32;;;;;;;13.52;8.10;;;9.50;78.70;;;;;;2361332;54;21513;-71
2022/02/13 09:43:58;;;;;;;10.05;7.20;;;9.90;77.70;;;;;;2289042;55;21727;-71
2022/02/13 09:46:25;;;;;;;10.48;7.18;;;10.20;75.60;;;;;;2288477;56;20941;-71
2022/02/13 09:48:51;;;;;;;11.82;8.00;;;10.50;74.80;;;;;;2290262;56;20993;-71
2022/02/13 09:51:17;;;;;;;10.38;6.95;;;10.80;74.10;;;;;;2298069;55;20958;-72
2022/02/13 09:53:45;;;;;;;11.02;6.75;;;11.00;73.50;;;;;;2382395;54;20992;-71
2022/02/13 09:56:12;;;;;;;12.32;8.02;;;11.10;72.90;;;;;;2288716;56;20949;-72
2022/02/13 09:58:40;;;;;;;13.38;9.27;;;11.20;72.90;;;;;;2286967;55;21657;-72
2022/02/13 10:01:07;;;;;;;14.05;9.57;;;11.40;73.30;;;;;;2288432;55;20949;-72
2022/02/13 10:03:37;;;;;;;13.88;9.52;;;11.50;73.60;;;;;;2291351;55;21021;-71
2022/02/13 10:07:15;;;;;;;12.82;9.15;;;11.60;73.80;;;;;;2286191;55;20953;-71
2022/02/13 10:09:42;;;;;;;11.18;7.72;;;11.90;72.30;;;;;;2288692;56;20977;-71
2022/02/13 10:12:13;;;;;;;12.00;9.10;;;12.20;76.60;;;;;;2288900;56;20984;-71
2022/02/13 10:14:39;;;;;;;11.07;8.32;;;12.60;77.50;;;;;;2325507;54;21413;-72
2022/02/13 10:17:05;;;;;;;14.50;7.80;;;13.10;78.00;;;;;;2295851;54;20985;-71
2022/02/13 10:19:33;;;;;;;12.77;7.53;;;13.50;77.60;;;;;;2383435;54;21016;-73
2022/02/13 10:22:00;;;;;;;11.80;6.97;;;13.90;76.70;;;;;;2289198;56;21543;-73
2022/02/13 10:24:36;;;;;;;10.80;6.82;;;14.30;75.80;;;;;;2293978;55;21008;-72
2022/02/13 10:27:12;;;;;;;8.57;5.43;;;14.60;73.70;;;;;;2293874;55;20985;-72
2022/02/13 10:29:40;;;;;;;10.77;4.68;;;14.80;73.40;;;;;;2289030;56;20933;-72
2022/02/13 10:32:25;;;;;;;8.60;4.40;;;15.00;72.30;;;;;;2322268;55;21071;-73
2022/02/13 10:35:11;;;;;;;6.53;4.32;;;15.20;70.10;;;;;;2345574;55;20981;-72
2022/02/13 10:37:54;;;;;;;8.80;4.43;;;15.30;68.00;;;;;;2289335;56;21041;-73
2022/02/13 10:40:22;;;;;;;7.75;4.22;;;15.30;67.30;;;;;;2292668;55;21020;-73
2022/02/13 10:43:00;;;;;;;7.20;4.18;;;15.40;68.50;;;;;;2285864;55;21009;-72
2022/02/13 10:45:27;;;;;;;8.77;4.35;;;15.50;67.30;;;;;;2288902;56;20993;-72
2022/02/13 10:47:59;;;;;;;8.15;4.37;;;15.50;67.10;;;;;;2293730;55;20922;-72
2022/02/13 10:50:27;;;;;;;6.72;3.55;;;15.50;65.90;;;;;;2338994;55;20952;-72
2022/02/13 10:52:58;;;;;;;7.78;3.42;;;15.60;67.00;;;;;;2289586;56;20989;-72
2022/02/13 10:55:28;;;;;;;7.12;3.50;;;15.70;66.80;;;;;;2288724;56;21012;-72
2022/02/13 10:57:55;;;;;;;7.90;3.80;;;15.80;66.50;;;;;;2309764;55;20952;-72
2022/02/13 11:00:21;;;;;;;7.43;4.12;;;15.90;66.20;;;;;;2288789;55;20953;-72
2022/02/13 11:02:49;;;;;;;5.95;3.28;;;16.00;65.60;;;;;;2348171;55;20991;-72
2022/02/13 11:05:16;;;;;;;8.13;3.83;;;16.10;64.60;;;;;;2288708;55;20933;-73
2022/02/13 11:07:47;;;;;;;8.13;3.33;;;16.10;63.10;;;;;;2288738;56;21754;-73
2022/02/13 11:10:40;;;;;;;7.07;2.80;;;16.20;63.60;;;;;;2523760;54;20992;-73
2022/02/13 11:13:06;;;;;;;5.40;2.92;;;16.20;62.10;;;;;;2289918;56;20952;-73
2022/02/13 11:15:32;;;;;;;6.80;2.87;;;16.30;62.90;;;;;;2290452;56;20944;-72
2022/02/13 11:18:03;;;;;;;7.78;3.20;;;16.30;63.20;;;;;;2289801;56;21685;-72
2022/02/13 11:20:29;;;;;;;7.75;3.30;;;16.40;62.50;;;;;;2422587;55;21001;-70
2022/02/13 11:23:31;;;;;;;5.82;2.95;;;16.40;62.20;;;;;;2290117;56;21016;-71
2022/02/13 11:26:02;;;;;;;8.07;3.40;;;16.50;60.80;;;;;;2367325;55;21044;-72
2022/02/13 11:32:02;;;;;;;6.78;2.60;;;16.60;61.60;;;;;;2289975;56;21044;-72
2022/02/13 11:35:15;;;;;;;5.78;2.67;;;16.80;60.50;;;;;;2293911;55;20948;-72
2022/02/13 11:37:48;;;;;;;6.43;2.80;;;17.00;61.20;;;;;;2289777;54;21088;-72
2022/02/13 11:40:48;;;;;;;5.65;2.65;;;17.10;61.50;;;;;;2333622;54;20968;-72
2022/02/13 11:43:14;;;;;;;6.30;2.87;;;17.30;59.20;;;;;;2290183;56;20940;-72
2022/02/13 11:45:47;;;;;;;6.43;2.80;;;17.30;60.70;;;;;;2293501;56;21012;-72
2022/02/13 11:48:43;;;;;;;7.55;2.97;;;17.40;59.20;;;;;;2285640;55;21725;-73
2022/02/13 11:51:10;;;;;;;5.30;2.75;;;17.50;58.20;;;;;;2289192;56;20920;-72
2022/02/13 11:53:38;;;;;;;7.55;3.05;;;17.60;59.10;;;;;;2297941;55;21477;-71
2022/02/13 11:56:22;;;;;;;6.45;2.90;;;17.70;59.60;;;;;;2270647;55;20946;-73
2022/02/13 11:58:48;;;;;;;6.07;2.78;;;17.70;57.80;;;;;;2287569;55;20945;-73
2022/02/13 12:01:39;;;;;;;4.78;2.40;;;17.80;59.90;;;;;;2289362;56;20940;-72
2022/02/13 12:04:08;;;;;;;6.95;2.85;;;17.90;58.40;;;;;;2289474;56;20961;-74
2022/02/13 12:06:35;;;;;;;5.60;2.80;;;18.00;58.60;;;;;;2289678;56;20989;-71
2022/02/13 12:09:13;;;;;;;7.20;2.60;;;18.00;59.00;;;;;;2335816;55;21547;-73
2022/02/13 12:11:40;;;;;;;5.40;2.70;;;18.10;57.80;;;;;;2296398;55;21028;-73
2022/02/13 12:14:18;;;;;;;5.65;2.60;;;18.10;57.80;;;;;;2418947;55;22037;-71
2022/02/13 12:16:55;;;;;;;6.07;2.67;;;18.10;57.80;;;;;;2289306;56;21462;-73
2022/02/13 12:19:34;;;;;;;4.87;2.33;;;18.20;57.60;;;;;;2288324;55;20982;-72
2022/02/13 12:22:12;;;;;;;4.85;2.10;;;18.30;58.40;;;;;;2308899;55;21048;-72
2022/02/13 12:24:40;;;;;;;6.65;2.40;;;18.30;56.60;;;;;;2292090;55;21051;-73
2022/02/13 12:27:07;;;;;;;5.43;2.65;;;18.40;58.50;;;;;;2299976;55;20989;-74
2022/02/13 12:29:34;;;;;;;6.10;3.25;;;18.40;57.20;;;;;;2290894;55;21307;-72
2022/02/13 12:32:12;;;;;;;5.75;2.67;;;18.40;56.80;;;;;;2288707;55;21024;-72
2022/02/13 12:36:31;;;;;;;4.30;2.25;;;18.40;54.90;;;;;;2289197;55;21010;-72
2022/02/13 12:38:57;;;;;;;6.60;2.67;;;18.50;54.90;;;;;;2387905;55;21097;-72
2022/02/13 12:41:25;;;;;;;4.87;2.75;;;18.50;56.60;;;;;;2288337;55;20941;-73
2022/02/13 12:43:52;;;;;;;4.90;2.67;;;18.50;55.80;;;;;;2290359;55;20965;-72
2022/02/13 12:46:20;;;;;;;4.95;2.15;;;18.60;57.10;;;;;;2523592;55;21040;-73
2022/02/13 12:48:47;;;;;;;4.80;2.40;;;18.70;57.20;;;;;;2469968;55;20968;-72
2022/02/13 12:51:24;;;;;;;6.85;2.72;;;18.80;56.50;;;;;;2320851;55;20997;-72
2022/02/13 12:53:51;;;;;;;5.12;2.47;;;18.80;56.70;;;;;;2290109;55;20940;-73
2022/02/13 12:56:30;;;;;;;4.90;2.10;;;18.90;55.70;;;;;;2291176;55;20985;-72
2022/02/13 12:59:00;;;;;;;5.95;2.40;;;18.90;55.10;;;;;;2288659;55;20937;-72
2022/02/13 13:01:30;;;;;;;4.55;2.15;;;19.00;55.60;;;;;;2289877;56;20937;-74
2022/02/13 13:03:56;;;;;;;4.25;2.20;;;19.00;55.00;;;;;;2289979;56;20964;-72